createdAt,value
2022-09-18T00:02:14.248Z,976.16
2022-09-18T00:07:45.654Z,976.45
2022-09-18T00:13:17.414Z,976.28
2022-09-18T00:18:49.317Z,976.28
2022-09-18T00:24:20.942Z,976.14
2022-09-18T00:29:59.009Z,975.95
2022-09-18T00:35:31.237Z,976.33
2022-09-18T00:41:02.534Z,976.47
2022-09-18T00:46:34.401Z,976.43
2022-09-18T00:52:06.049Z,976.53
2022-09-18T00:57:37.639Z,976.63
2022-09-18T01:03:09.445Z,976.58
2022-09-18T01:08:44.770Z,976.53
2022-09-18T01:14:12.838Z,976.58
2022-09-18T01:19:44.469Z,976.31
2022-09-18T01:25:16.268Z,976.35
2022-09-18T01:30:54.586Z,976.31
2022-09-18T01:36:26.146Z,976.14
2022-09-18T01:41:58.094Z,976.11
2022-09-18T01:47:29.680Z,976.18
2022-09-18T01:53:01.330Z,976.32
2022-09-18T01:58:33.024Z,976.21
2022-09-18T02:04:04.900Z,975.91
2022-09-18T02:09:36.462Z,975.78
2022-09-18T02:15:08.401Z,975.92
2022-09-18T02:20:39.928Z,976.5
2022-09-18T02:26:11.853Z,976.23
2022-09-18T02:31:48.057Z,976.15
2022-09-18T02:37:19.665Z,976.38
2022-09-18T02:42:51.301Z,976.34
2022-09-18T02:48:22.965Z,976.64
2022-09-18T02:53:54.993Z,976.91
2022-09-18T02:59:26.412Z,976.76
2022-09-18T03:04:58.163Z,977.13
2022-09-18T03:10:29.815Z,977.17
2022-09-18T03:16:01.727Z,976.49
2022-09-18T03:21:33.349Z,977.12
2022-09-18T03:27:05.233Z,976.41
2022-09-18T03:32:41.245Z,976.7
2022-09-18T03:38:13.301Z,976.66
2022-09-18T03:43:44.627Z,976.49
2022-09-18T03:49:16.406Z,976.9
2022-09-18T03:54:48.244Z,976.85
2022-09-18T04:00:19.793Z,977.37
2022-09-18T04:05:51.549Z,977.26
2022-09-18T04:11:23.344Z,977.2
2022-09-18T04:16:54.909Z,976.65
2022-09-18T04:22:26.709Z,977.16
2022-09-18T04:27:58.413Z,977.17
2022-09-18T04:33:36.521Z,977.03
2022-09-18T04:39:08.248Z,977.09
2022-09-18T04:44:39.991Z,977.44
2022-09-18T04:50:11.747Z,977.69
2022-09-18T04:55:43.428Z,977.59
2022-09-18T05:01:15.410Z,977.61
2022-09-18T05:06:46.893Z,977.67
2022-09-18T05:12:18.877Z,977.5
2022-09-18T05:17:50.370Z,977.89
2022-09-18T05:23:22.118Z,977.88
2022-09-18T05:28:53.832Z,978.35
2022-09-18T05:34:32.067Z,978.51
2022-09-18T05:40:03.993Z,978.38
2022-09-18T05:45:35.507Z,978.29
2022-09-18T05:51:07.208Z,978.83
2022-09-18T05:56:38.752Z,978.68
2022-09-18T06:02:10.776Z,978.71
2022-09-18T06:07:42.233Z,978.76
2022-09-18T06:13:14.012Z,978.59
2022-09-18T06:18:45.744Z,978.59
2022-09-18T06:24:17.516Z,978.63
2022-09-18T06:29:49.205Z,978.92
2022-09-18T06:35:27.369Z,978.94
2022-09-18T06:40:59.058Z,978.66
2022-09-18T06:46:31.041Z,978.55
2022-09-18T06:52:02.489Z,978.7
2022-09-18T06:57:34.760Z,979.12
2022-09-18T07:03:05.912Z,979.17
2022-09-18T07:08:37.715Z,979.16
2022-09-18T07:14:10.153Z,979.2
2022-09-18T07:19:41.853Z,979.45
2022-09-18T07:25:13.701Z,979.41
2022-09-18T07:30:46.049Z,979.69
2022-09-18T07:36:26.205Z,979.56
2022-09-18T07:41:57.977Z,979.45
2022-09-18T07:47:29.597Z,979.43
2022-09-18T07:53:01.407Z,979.4
2022-09-18T07:58:33.029Z,979.36
2022-09-18T08:04:04.804Z,979.26
2022-09-18T08:09:36.484Z,979.52
2022-09-18T08:15:08.208Z,979.86
2022-09-18T08:17:44.937Z,979.51
2022-09-18T08:23:16.501Z,979.6
2022-09-18T08:28:48.246Z,980.04
2022-09-18T08:34:20.065Z,980.05
2022-09-18T08:39:52.232Z,980.18
2022-09-18T08:45:23.522Z,980.19
2022-09-18T08:50:55.222Z,979.99
2022-09-18T08:56:27.042Z,980.23
2022-09-18T09:01:58.989Z,980.22
2022-09-18T09:07:30.768Z,979.95
2022-09-18T09:13:02.252Z,980.17
2022-09-18T09:18:38.372Z,980.18
2022-09-18T09:24:10.120Z,980.12
2022-09-18T09:29:41.932Z,980.71
2022-09-18T09:35:13.571Z,980.39
2022-09-18T09:40:45.872Z,980.25
2022-09-18T09:46:22.217Z,980.6
2022-09-18T09:51:48.863Z,980.24
2022-09-18T09:57:20.491Z,980.13
2022-09-18T10:02:52.202Z,980.54
2022-09-18T10:08:23.964Z,980.87
2022-09-18T10:13:55.619Z,980.97
2022-09-18T10:19:31.793Z,980.77
2022-09-18T10:25:03.477Z,980.92
2022-09-18T10:30:35.252Z,981.06
2022-09-18T10:36:06.982Z,980.34
2022-09-18T10:41:38.737Z,981.07
2022-09-18T10:47:10.505Z,980.63
2022-09-18T10:52:42.165Z,980.76
2022-09-18T10:58:13.917Z,980.81
2022-09-18T11:03:45.813Z,981.14
2022-09-18T11:09:17.329Z,981.23
2022-09-18T11:14:49.117Z,980.96
2022-09-18T11:20:25.145Z,980.21
2022-09-18T11:25:56.856Z,980.2
2022-09-18T11:31:28.965Z,980.78
2022-09-18T11:37:00.406Z,980.71
2022-09-18T11:42:32.005Z,979.79
2022-09-18T11:48:03.977Z,979.38
2022-09-18T11:53:35.486Z,979.31
2022-09-18T11:59:07.241Z,979.01
2022-09-18T12:04:38.989Z,978.87
2022-09-18T12:10:09.406Z,978.83
2022-09-18T12:15:41.030Z,979.07
2022-09-18T12:21:17.168Z,978.16
2022-09-18T12:26:49.005Z,978.37
2022-09-18T12:32:20.609Z,978.73
2022-09-18T12:37:52.332Z,978.48
2022-09-18T12:43:24.744Z,978.14
2022-09-18T12:48:56.465Z,978.07
2022-09-18T12:54:28.180Z,977.72
2022-09-18T12:59:59.983Z,977.47
2022-09-18T13:05:31.680Z,977.22
2022-09-18T13:11:03.410Z,976.77
2022-09-18T13:16:36.188Z,976.76
2022-09-18T13:22:11.953Z,976.65
2022-09-18T13:27:43.733Z,976.52
2022-09-18T13:33:15.462Z,976.79
2022-09-18T13:38:47.190Z,976.61
2022-09-18T13:44:18.978Z,976.3
2022-09-18T13:49:50.856Z,976.24
2022-09-18T13:55:22.403Z,976.24
2022-09-18T14:00:54.196Z,975.83
2022-09-18T14:06:25.814Z,975.81
2022-09-18T14:11:57.686Z,975.96
2022-09-18T14:17:29.349Z,975.95
2022-09-18T14:23:07.467Z,976.07
2022-09-18T14:28:39.145Z,975.97
2022-09-18T14:34:10.845Z,976.07
2022-09-18T14:39:42.666Z,976.13
2022-09-18T14:45:14.357Z,975.85
2022-09-18T14:50:46.139Z,975.2
2022-09-18T14:56:17.767Z,975.61
2022-09-18T15:01:49.498Z,975.83
2022-09-18T15:07:21.230Z,975.4
2022-09-18T15:12:52.940Z,975.22
2022-09-18T15:18:24.766Z,974.96
2022-09-18T15:24:00.764Z,974.81
2022-09-18T15:29:32.523Z,975.39
2022-09-18T15:35:04.344Z,974.54
2022-09-18T15:40:36.231Z,974.65
2022-09-18T15:46:07.745Z,974.33
2022-09-18T15:51:39.400Z,974.59
2022-09-18T15:57:11.124Z,974.41
2022-09-18T16:02:42.869Z,974.38
2022-09-18T16:08:14.758Z,974.21
2022-09-18T16:13:46.414Z,974.24
2022-09-18T16:19:18.216Z,974.16
2022-09-18T16:24:54.203Z,974.07
2022-09-18T16:30:25.940Z,973.85
2022-09-18T16:35:57.802Z,973.62
2022-09-18T16:41:29.507Z,973.82
2022-09-18T16:47:01.468Z,973.66
2022-09-18T16:52:33.264Z,973.56
2022-09-18T16:58:04.944Z,973.34
2022-09-18T17:03:36.733Z,973.69
2022-09-18T17:09:08.447Z,973.51
2022-09-18T17:14:40.190Z,972.78
2022-09-18T17:20:11.922Z,972.85
2022-09-18T17:25:48.134Z,972.85
2022-09-18T17:31:20.024Z,972.91
2022-09-18T17:36:51.555Z,972.88
2022-09-18T17:42:23.247Z,972.81
2022-09-18T17:47:55.018Z,972.74
2022-09-18T17:53:26.732Z,972.6
2022-09-18T17:58:58.366Z,972.72
2022-09-18T18:04:30.129Z,972.79
2022-09-18T18:10:02.425Z,972.34
2022-09-18T18:15:34.188Z,972.29
2022-09-18T18:21:06.189Z,972.37
2022-09-18T18:26:41.998Z,972.43
2022-09-18T18:32:13.957Z,972.64
2022-09-18T18:37:45.528Z,972.53
2022-09-18T18:43:17.228Z,972.51
2022-09-18T18:48:48.959Z,972.31
2022-09-18T18:54:20.675Z,972.45
2022-09-18T18:59:52.410Z,972.38
2022-09-18T19:05:24.148Z,972.47
2022-09-18T19:10:55.820Z,972.69
2022-09-18T19:16:27.696Z,972.79
2022-09-18T19:21:59.475Z,972.5
2022-09-18T19:27:37.436Z,972.65
2022-09-18T19:33:10.546Z,972.28
2022-09-18T19:38:40.893Z,972.14
2022-09-18T19:44:12.594Z,972.55
2022-09-18T19:49:44.430Z,972.09
2022-09-18T19:55:16.126Z,972.33
2022-09-18T20:00:48.064Z,972.21
2022-09-18T20:06:19.488Z,971.98
2022-09-18T20:11:51.200Z,971.13
2022-09-18T20:17:22.924Z,971.93
2022-09-18T20:22:54.712Z,970.84
2022-09-18T20:28:30.840Z,971.39
2022-09-18T20:34:02.752Z,971.17
2022-09-18T20:39:34.376Z,971.22
2022-09-18T20:45:06.157Z,971.09
2022-09-18T20:50:37.937Z,971.11
2022-09-18T20:56:09.725Z,970.85
2022-09-18T21:01:41.409Z,970.88
2022-09-18T21:07:13.020Z,971.46
2022-09-18T21:12:44.770Z,971.13
2022-09-18T21:18:16.455Z,970.89
2022-09-18T21:23:48.211Z,971.3
2022-09-18T21:29:24.378Z,971.52
2022-09-18T21:34:56.075Z,970.92
2022-09-18T21:40:27.979Z,971.27
2022-09-18T21:45:59.571Z,971.15
2022-09-18T21:51:31.292Z,971.3
2022-09-18T21:57:02.954Z,971.1
2022-09-18T22:02:34.642Z,971.58
2022-09-18T22:08:06.470Z,971.63
2022-09-18T22:13:38.185Z,972.28
2022-09-18T22:19:10.143Z,971.97
2022-09-18T22:24:41.683Z,972.29
2022-09-18T22:30:17.810Z,972.41
2022-09-18T22:35:49.531Z,972.57
2022-09-18T22:41:21.281Z,972.42
2022-09-18T22:46:53.435Z,972.41
2022-09-18T22:52:24.659Z,972.43
2022-09-18T22:57:56.562Z,972.46
2022-09-18T23:03:28.134Z,972.31
2022-09-18T23:08:59.887Z,972.47
2022-09-18T23:14:31.599Z,973.27
2022-09-18T23:20:03.277Z,973.23
2022-09-18T23:25:35.132Z,973.68
2022-09-18T23:31:13.297Z,973.75
2022-09-18T23:36:44.874Z,973.83
2022-09-18T23:42:16.641Z,974.7
2022-09-18T23:47:48.361Z,974.46
2022-09-18T23:53:20.134Z,973.62
2022-09-18T23:58:51.830Z,973.84
